sensor_id;sensor_type;location;lat;lon;timestamp;P1;durP1;ratioP1;P2;durP2;ratioP2
22287;SDS011;11312;51.464;6.968;2024-03-02T00:01:26;2.83;;;1.50;;
22287;SDS011;11312;51.464;6.968;2024-03-02T00:03:52;2.78;;;1.52;;
22287;SDS011;11312;51.464;6.968;2024-03-02T00:06:19;2.55;;;1.50;;
22287;SDS011;11312;51.464;6.968;2024-03-02T00:08:46;3.88;;;1.80;;
22287;SDS011;11312;51.464;6.968;2024-03-02T00:11:12;2.53;;;1.50;;
22287;SDS011;11312;51.464;6.968;2024-03-02T00:13:40;3.67;;;1.63;;
22287;SDS011;11312;51.464;6.968;2024-03-02T00:16:06;2.90;;;1.50;;
22287;SDS011;11312;51.464;6.968;2024-03-02T00:18:35;3.28;;;1.60;;
22287;SDS011;11312;51.464;6.968;2024-03-02T00:21:01;2.75;;;1.55;;
22287;SDS011;11312;51.464;6.968;2024-03-02T00:23:31;3.35;;;1.60;;
22287;SDS011;11312;51.464;6.968;2024-03-02T00:25:57;3.45;;;1.63;;
22287;SDS011;11312;51.464;6.968;2024-03-02T00:28:29;3.10;;;1.60;;
22287;SDS011;11312;51.464;6.968;2024-03-02T00:31:06;2.85;;;1.50;;
22287;SDS011;11312;51.464;6.968;2024-03-02T00:33:43;8.63;;;1.80;;
22287;SDS011;11312;51.464;6.968;2024-03-02T00:36:09;3.10;;;1.60;;
22287;SDS011;11312;51.464;6.968;2024-03-02T00:38:49;2.75;;;1.50;;
22287;SDS011;11312;51.464;6.968;2024-03-02T00:41:18;3.33;;;1.60;;
22287;SDS011;11312;51.464;6.968;2024-03-02T00:46:26;3.55;;;1.70;;
22287;SDS011;11312;51.464;6.968;2024-03-02T00:48:58;4.40;;;2.05;;
22287;SDS011;11312;51.464;6.968;2024-03-02T00:51:27;2.47;;;1.40;;
22287;SDS011;11312;51.464;6.968;2024-03-02T00:53:54;2.63;;;1.48;;
22287;SDS011;11312;51.464;6.968;2024-03-02T00:56:22;2.10;;;1.40;;
22287;SDS011;11312;51.464;6.968;2024-03-02T00:58:49;2.10;;;1.40;;
22287;SDS011;11312;51.464;6.968;2024-03-02T01:01:15;2.90;;;1.58;;
22287;SDS011;11312;51.464;6.968;2024-03-02T01:03:41;3.03;;;1.60;;
22287;SDS011;11312;51.464;6.968;2024-03-02T01:06:07;3.75;;;1.70;;
22287;SDS011;11312;51.464;6.968;2024-03-02T01:11:04;3.17;;;1.60;;
22287;SDS011;11312;51.464;6.968;2024-03-02T01:13:30;2.85;;;1.52;;
22287;SDS011;11312;51.464;6.968;2024-03-02T01:15:56;3.10;;;1.60;;
22287;SDS011;11312;51.464;6.968;2024-03-02T01:18:22;3.13;;;1.60;;
22287;SDS011;11312;51.464;6.968;2024-03-02T01:20:48;2.85;;;1.50;;
22287;SDS011;11312;51.464;6.968;2024-03-02T01:23:16;2.50;;;1.40;;
22287;SDS011;11312;51.464;6.968;2024-03-02T01:25:45;2.65;;;1.50;;
22287;SDS011;11312;51.464;6.968;2024-03-02T01:28:12;4.72;;;1.52;;
22287;SDS011;11312;51.464;6.968;2024-03-02T01:30:38;1.90;;;1.30;;
22287;SDS011;11312;51.464;6.968;2024-03-02T01:33:03;2.00;;;1.30;;
22287;SDS011;11312;51.464;6.968;2024-03-02T01:35:30;2.30;;;1.40;;
22287;SDS011;11312;51.464;6.968;2024-03-02T01:37:56;2.85;;;1.50;;
22287;SDS011;11312;51.464;6.968;2024-03-02T01:40:22;2.67;;;1.50;;
22287;SDS011;11312;51.464;6.968;2024-03-02T01:42:51;3.90;;;1.75;;
22287;SDS011;11312;51.464;6.968;2024-03-02T01:45:17;3.50;;;1.67;;
22287;SDS011;11312;51.464;6.968;2024-03-02T01:47:43;3.45;;;1.67;;
22287;SDS011;11312;51.464;6.968;2024-03-02T01:50:10;2.72;;;1.50;;
22287;SDS011;11312;51.464;6.968;2024-03-02T01:52:36;2.78;;;1.50;;
22287;SDS011;11312;51.464;6.968;2024-03-02T01:55:02;3.80;;;1.90;;
22287;SDS011;11312;51.464;6.968;2024-03-02T01:57:28;2.55;;;1.50;;
22287;SDS011;11312;51.464;6.968;2024-03-02T01:59:55;3.47;;;1.70;;
22287;SDS011;11312;51.464;6.968;2024-03-02T02:02:20;2.63;;;1.50;;
22287;SDS011;11312;51.464;6.968;2024-03-02T02:04:46;2.28;;;1.35;;
22287;SDS011;11312;51.464;6.968;2024-03-02T02:07:12;2.58;;;1.48;;
22287;SDS011;11312;51.464;6.968;2024-03-02T02:09:42;2.85;;;1.55;;
22287;SDS011;11312;51.464;6.968;2024-03-02T02:12:08;3.30;;;1.60;;
22287;SDS011;11312;51.464;6.968;2024-03-02T02:14:36;2.70;;;1.60;;
22287;SDS011;11312;51.464;6.968;2024-03-02T02:17:02;2.20;;;1.38;;
22287;SDS011;11312;51.464;6.968;2024-03-02T02:19:27;3.35;;;1.67;;
22287;SDS011;11312;51.464;6.968;2024-03-02T02:21:53;17.30;;;2.20;;
22287;SDS011;11312;51.464;6.968;2024-03-02T02:24:19;2.70;;;1.40;;
22287;SDS011;11312;51.464;6.968;2024-03-02T02:26:45;2.92;;;1.63;;
22287;SDS011;11312;51.464;6.968;2024-03-02T02:29:10;3.05;;;1.60;;
22287;SDS011;11312;51.464;6.968;2024-03-02T02:31:40;2.63;;;1.45;;
22287;SDS011;11312;51.464;6.968;2024-03-02T02:34:06;2.85;;;1.55;;
22287;SDS011;11312;51.464;6.968;2024-03-02T02:36:32;2.83;;;1.60;;
22287;SDS011;11312;51.464;6.968;2024-03-02T02:38:59;2.75;;;1.50;;
22287;SDS011;11312;51.464;6.968;2024-03-02T02:41:28;3.05;;;1.60;;
22287;SDS011;11312;51.464;6.968;2024-03-02T02:43:54;2.42;;;1.48;;
22287;SDS011;11312;51.464;6.968;2024-03-02T02:46:20;2.72;;;1.50;;
22287;SDS011;11312;51.464;6.968;2024-03-02T02:48:46;2.70;;;1.50;;
22287;SDS011;11312;51.464;6.968;2024-03-02T02:51:12;2.70;;;1.50;;
22287;SDS011;11312;51.464;6.968;2024-03-02T02:53:37;3.67;;;1.77;;
22287;SDS011;11312;51.464;6.968;2024-03-02T02:56:07;2.20;;;1.40;;
22287;SDS011;11312;51.464;6.968;2024-03-02T02:58:32;3.38;;;1.63;;
22287;SDS011;11312;51.464;6.968;2024-03-02T03:00:58;3.35;;;1.63;;
22287;SDS011;11312;51.464;6.968;2024-03-02T03:03:24;2.78;;;1.50;;
22287;SDS011;11312;51.464;6.968;2024-03-02T03:05:50;2.83;;;1.50;;
22287;SDS011;11312;51.464;6.968;2024-03-02T03:08:15;3.20;;;2.03;;
22287;SDS011;11312;51.464;6.968;2024-03-02T03:10:41;7.15;;;1.80;;
22287;SDS011;11312;51.464;6.968;2024-03-02T03:13:07;3.13;;;1.52;;
22287;SDS011;11312;51.464;6.968;2024-03-02T03:15:36;2.28;;;1.40;;
22287;SDS011;11312;51.464;6.968;2024-03-02T03:18:02;2.00;;;1.30;;
22287;SDS011;11312;51.464;6.968;2024-03-02T03:20:29;2.70;;;1.50;;
22287;SDS011;11312;51.464;6.968;2024-03-02T03:22:55;2.25;;;1.40;;
22287;SDS011;11312;51.464;6.968;2024-03-02T03:25:21;2.72;;;1.50;;
22287;SDS011;11312;51.464;6.968;2024-03-02T03:27:46;2.72;;;1.50;;
22287;SDS011;11312;51.464;6.968;2024-03-02T03:30:12;2.22;;;1.40;;
22287;SDS011;11312;51.464;6.968;2024-03-02T03:32:38;2.65;;;1.50;;
22287;SDS011;11312;51.464;6.968;2024-03-02T03:35:04;2.55;;;1.45;;
22287;SDS011;11312;51.464;6.968;2024-03-02T03:37:30;6.55;;;1.75;;
22287;SDS011;11312;51.464;6.968;2024-03-02T03:39:59;3.00;;;1.60;;
22287;SDS011;11312;51.464;6.968;2024-03-02T03:42:26;2.67;;;1.48;;
22287;SDS011;11312;51.464;6.968;2024-03-02T03:44:51;2.97;;;1.55;;
22287;SDS011;11312;51.464;6.968;2024-03-02T03:47:17;2.92;;;1.60;;
22287;SDS011;11312;51.464;6.968;2024-03-02T03:49:43;2.30;;;1.40;;
22287;SDS011;11312;51.464;6.968;2024-03-02T03:52:09;2.85;;;1.60;;
22287;SDS011;11312;51.464;6.968;2024-03-02T03:54:34;2.88;;;1.60;;
22287;SDS011;11312;51.464;6.968;2024-03-02T03:57:02;2.72;;;1.50;;
22287;SDS011;11312;51.464;6.968;2024-03-02T03:59:27;3.03;;;1.60;;
22287;SDS011;11312;51.464;6.968;2024-03-02T04:01:53;2.53;;;1.48;;
22287;SDS011;11312;51.464;6.968;2024-03-02T04:04:19;2.00;;;1.33;;
22287;SDS011;11312;51.464;6.968;2024-03-02T04:06:44;3.00;;;1.55;;
22287;SDS011;11312;51.464;6.968;2024-03-02T04:09:10;2.38;;;1.45;;
22287;SDS011;11312;51.464;6.968;2024-03-02T04:11:35;2.28;;;1.40;;
22287;SDS011;11312;51.464;6.968;2024-03-02T04:14:02;3.47;;;1.95;;
22287;SDS011;11312;51.464;6.968;2024-03-02T04:16:28;2.70;;;1.50;;
22287;SDS011;11312;51.464;6.968;2024-03-02T04:18:54;2.58;;;1.50;;
22287;SDS011;11312;51.464;6.968;2024-03-02T04:21:19;3.22;;;1.67;;
22287;SDS011;11312;51.464;6.968;2024-03-02T04:23:45;2.85;;;1.60;;
22287;SDS011;11312;51.464;6.968;2024-03-02T04:26:10;2.53;;;1.50;;
22287;SDS011;11312;51.464;6.968;2024-03-02T04:28:36;2.38;;;1.50;;
22287;SDS011;11312;51.464;6.968;2024-03-02T04:31:02;4.88;;;2.17;;
22287;SDS011;11312;51.464;6.968;2024-03-02T04:33:27;3.42;;;1.70;;
22287;SDS011;11312;51.464;6.968;2024-03-02T04:35:53;3.33;;;1.77;;
22287;SDS011;11312;51.464;6.968;2024-03-02T04:38:18;3.08;;;1.60;;
22287;SDS011;11312;51.464;6.968;2024-03-02T04:40:44;3.38;;;1.63;;
22287;SDS011;11312;51.464;6.968;2024-03-02T04:43:10;5.30;;;1.92;;
22287;SDS011;11312;51.464;6.968;2024-03-02T04:45:40;3.85;;;1.80;;
22287;SDS011;11312;51.464;6.968;2024-03-02T04:48:05;2.42;;;1.40;;
22287;SDS011;11312;51.464;6.968;2024-03-02T04:50:31;4.07;;;1.80;;
22287;SDS011;11312;51.464;6.968;2024-03-02T04:52:57;3.08;;;1.60;;
22287;SDS011;11312;51.464;6.968;2024-03-02T04:55:22;2.50;;;1.45;;
22287;SDS011;11312;51.464;6.968;2024-03-02T04:58:14;4.07;;;1.88;;
22287;SDS011;11312;51.464;6.968;2024-03-02T05:00:40;4.18;;;1.92;;
22287;SDS011;11312;51.464;6.968;2024-03-02T05:03:07;2.70;;;1.52;;
22287;SDS011;11312;51.464;6.968;2024-03-02T05:05:33;3.83;;;1.70;;
22287;SDS011;11312;51.464;6.968;2024-03-02T05:08:00;3.83;;;2.15;;
22287;SDS011;11312;51.464;6.968;2024-03-02T05:10:25;3.58;;;1.70;;
22287;SDS011;11312;51.464;6.968;2024-03-02T05:12:51;3.25;;;1.63;;
22287;SDS011;11312;51.464;6.968;2024-03-02T05:15:24;2.72;;;1.50;;
22287;SDS011;11312;51.464;6.968;2024-03-02T05:17:50;3.00;;;1.55;;
22287;SDS011;11312;51.464;6.968;2024-03-02T05:20:16;3.25;;;1.63;;
22287;SDS011;11312;51.464;6.968;2024-03-02T05:22:42;3.40;;;1.65;;
22287;SDS011;11312;51.464;6.968;2024-03-02T05:25:07;3.75;;;1.70;;
22287;SDS011;11312;51.464;6.968;2024-03-02T05:27:34;3.50;;;1.70;;
22287;SDS011;11312;51.464;6.968;2024-03-02T05:30:00;4.53;;;2.08;;
22287;SDS011;11312;51.464;6.968;2024-03-02T05:32:26;2.83;;;1.60;;
22287;SDS011;11312;51.464;6.968;2024-03-02T05:34:51;4.50;;;1.80;;
22287;SDS011;11312;51.464;6.968;2024-03-02T05:37:17;3.25;;;1.63;;
22287;SDS011;11312;51.464;6.968;2024-03-02T05:39:43;3.97;;;1.88;;
22287;SDS011;11312;51.464;6.968;2024-03-02T05:42:09;3.70;;;1.75;;
22287;SDS011;11312;51.464;6.968;2024-03-02T05:44:35;3.67;;;1.85;;
22287;SDS011;11312;51.464;6.968;2024-03-02T05:47:01;3.00;;;1.60;;
22287;SDS011;11312;51.464;6.968;2024-03-02T05:49:28;2.90;;;1.55;;
22287;SDS011;11312;51.464;6.968;2024-03-02T05:51:53;3.05;;;1.60;;
22287;SDS011;11312;51.464;6.968;2024-03-02T05:54:19;4.43;;;2.00;;
22287;SDS011;11312;51.464;6.968;2024-03-02T05:56:44;2.53;;;1.50;;
22287;SDS011;11312;51.464;6.968;2024-03-02T05:59:10;3.40;;;1.70;;
22287;SDS011;11312;51.464;6.968;2024-03-02T06:04:08;2.97;;;1.60;;
22287;SDS011;11312;51.464;6.968;2024-03-02T06:06:34;3.72;;;1.75;;
22287;SDS011;11312;51.464;6.968;2024-03-02T06:09:00;3.60;;;1.73;;
22287;SDS011;11312;51.464;6.968;2024-03-02T06:11:27;3.40;;;1.70;;
22287;SDS011;11312;51.464;6.968;2024-03-02T06:13:53;3.72;;;1.88;;
22287;SDS011;11312;51.464;6.968;2024-03-02T06:16:19;3.53;;;1.70;;
22287;SDS011;11312;51.464;6.968;2024-03-02T06:18:44;7.00;;;1.95;;
22287;SDS011;11312;51.464;6.968;2024-03-02T06:21:10;4.15;;;1.92;;
22287;SDS011;11312;51.464;6.968;2024-03-02T06:23:35;3.92;;;1.77;;
22287;SDS011;11312;51.464;6.968;2024-03-02T06:26:01;3.95;;;1.83;;
22287;SDS011;11312;51.464;6.968;2024-03-02T06:28:27;5.72;;;2.17;;
22287;SDS011;11312;51.464;6.968;2024-03-02T06:30:53;3.97;;;1.80;;
22287;SDS011;11312;51.464;6.968;2024-03-02T06:33:19;3.50;;;1.83;;
22287;SDS011;11312;51.464;6.968;2024-03-02T06:35:44;4.32;;;2.00;;
22287;SDS011;11312;51.464;6.968;2024-03-02T06:38:10;2.72;;;1.50;;
22287;SDS011;11312;51.464;6.968;2024-03-02T06:40:36;3.22;;;1.60;;
22287;SDS011;11312;51.464;6.968;2024-03-02T06:43:04;3.45;;;1.73;;
22287;SDS011;11312;51.464;6.968;2024-03-02T06:45:30;3.05;;;1.60;;
22287;SDS011;11312;51.464;6.968;2024-03-02T06:47:56;4.40;;;1.80;;
22287;SDS011;11312;51.464;6.968;2024-03-02T06:50:21;3.30;;;1.77;;
22287;SDS011;11312;51.464;6.968;2024-03-02T06:52:47;3.83;;;1.90;;
22287;SDS011;11312;51.464;6.968;2024-03-02T06:55:12;4.53;;;2.13;;
22287;SDS011;11312;51.464;6.968;2024-03-02T06:57:38;5.22;;;2.00;;
22287;SDS011;11312;51.464;6.968;2024-03-02T07:00:04;3.65;;;1.75;;
22287;SDS011;11312;51.464;6.968;2024-03-02T07:02:31;3.45;;;1.85;;
22287;SDS011;11312;51.464;6.968;2024-03-02T07:04:57;4.18;;;2.30;;
22287;SDS011;11312;51.464;6.968;2024-03-02T07:07:23;4.00;;;1.88;;
22287;SDS011;11312;51.464;6.968;2024-03-02T07:09:48;3.47;;;1.70;;
22287;SDS011;11312;51.464;6.968;2024-03-02T07:12:14;3.08;;;1.60;;
22287;SDS011;11312;51.464;6.968;2024-03-02T07:14:39;4.75;;;2.33;;
22287;SDS011;11312;51.464;6.968;2024-03-02T07:17:24;2.67;;;1.50;;
22287;SDS011;11312;51.464;6.968;2024-03-02T07:19:50;4.75;;;2.20;;
22287;SDS011;11312;51.464;6.968;2024-03-02T07:22:16;2.90;;;1.55;;
22287;SDS011;11312;51.464;6.968;2024-03-02T07:24:43;3.30;;;1.67;;
22287;SDS011;11312;51.464;6.968;2024-03-02T07:27:09;3.25;;;1.65;;
22287;SDS011;11312;51.464;6.968;2024-03-02T07:29:35;3.15;;;1.70;;
22287;SDS011;11312;51.464;6.968;2024-03-02T07:32:01;2.92;;;1.52;;
22287;SDS011;11312;51.464;6.968;2024-03-02T07:34:27;3.03;;;1.63;;
22287;SDS011;11312;51.464;6.968;2024-03-02T07:36:52;3.90;;;1.85;;
22287;SDS011;11312;51.464;6.968;2024-03-02T07:39:18;4.10;;;1.88;;
22287;SDS011;11312;51.464;6.968;2024-03-02T07:41:46;3.35;;;1.70;;
22287;SDS011;11312;51.464;6.968;2024-03-02T07:44:12;3.67;;;1.80;;
22287;SDS011;11312;51.464;6.968;2024-03-02T07:46:43;3.65;;;1.77;;
22287;SDS011;11312;51.464;6.968;2024-03-02T07:49:11;3.58;;;1.70;;
22287;SDS011;11312;51.464;6.968;2024-03-02T07:51:38;5.40;;;2.00;;
22287;SDS011;11312;51.464;6.968;2024-03-02T07:54:04;4.05;;;2.00;;
22287;SDS011;11312;51.464;6.968;2024-03-02T07:56:30;2.50;;;1.42;;
22287;SDS011;11312;51.464;6.968;2024-03-02T07:58:55;3.63;;;1.70;;
22287;SDS011;11312;51.464;6.968;2024-03-02T08:01:26;3.47;;;1.73;;
22287;SDS011;11312;51.464;6.968;2024-03-02T08:03:52;3.67;;;1.65;;
22287;SDS011;11312;51.464;6.968;2024-03-02T08:06:18;2.55;;;1.45;;
22287;SDS011;11312;51.464;6.968;2024-03-02T08:08:46;4.70;;;1.73;;
22287;SDS011;11312;51.464;6.968;2024-03-02T08:11:12;2.58;;;1.50;;
22287;SDS011;11312;51.464;6.968;2024-03-02T08:13:37;3.17;;;1.60;;
22287;SDS011;11312;51.464;6.968;2024-03-02T08:16:03;3.25;;;1.70;;
22287;SDS011;11312;51.464;6.968;2024-03-02T08:18:32;2.00;;;1.35;;
22287;SDS011;11312;51.464;6.968;2024-03-02T08:20:58;1.98;;;1.35;;
22287;SDS011;11312;51.464;6.968;2024-03-02T08:23:23;2.13;;;1.40;;
22287;SDS011;11312;51.464;6.968;2024-03-02T08:25:49;3.25;;;1.60;;
22287;SDS011;11312;51.464;6.968;2024-03-02T08:28:15;3.53;;;1.55;;
22287;SDS011;11312;51.464;6.968;2024-03-02T08:30:40;3.40;;;1.63;;
22287;SDS011;11312;51.464;6.968;2024-03-02T08:33:06;1.30;;;1.20;;
22287;SDS011;11312;51.464;6.968;2024-03-02T08:35:32;1.60;;;1.30;;
22287;SDS011;11312;51.464;6.968;2024-03-02T08:38:03;3.55;;;1.77;;
22287;SDS011;11312;51.464;6.968;2024-03-02T08:40:29;2.40;;;1.50;;
22287;SDS011;11312;51.464;6.968;2024-03-02T08:42:56;1.88;;;1.38;;
22287;SDS011;11312;51.464;6.968;2024-03-02T08:45:22;2.15;;;1.40;;
22287;SDS011;11312;51.464;6.968;2024-03-02T08:47:48;1.65;;;1.30;;
22287;SDS011;11312;51.464;6.968;2024-03-02T08:50:13;1.63;;;1.30;;
22287;SDS011;11312;51.464;6.968;2024-03-02T08:52:39;1.75;;;1.30;;
22287;SDS011;11312;51.464;6.968;2024-03-02T08:55:05;1.33;;;1.23;;
22287;SDS011;11312;51.464;6.968;2024-03-02T08:57:32;2.65;;;1.58;;
22287;SDS011;11312;51.464;6.968;2024-03-02T08:59:58;2.20;;;1.38;;
22287;SDS011;11312;51.464;6.968;2024-03-02T09:02:24;2.30;;;1.50;;
22287;SDS011;11312;51.464;6.968;2024-03-02T09:04:49;2.35;;;1.42;;
22287;SDS011;11312;51.464;6.968;2024-03-02T09:07:15;3.60;;;1.75;;
22287;SDS011;11312;51.464;6.968;2024-03-02T09:09:41;3.70;;;1.75;;
22287;SDS011;11312;51.464;6.968;2024-03-02T09:12:06;1.70;;;1.30;;
22287;SDS011;11312;51.464;6.968;2024-03-02T09:14:32;2.25;;;1.73;;
22287;SDS011;11312;51.464;6.968;2024-03-02T09:16:59;2.03;;;1.40;;
22287;SDS011;11312;51.464;6.968;2024-03-02T09:19:25;1.30;;;1.20;;
22287;SDS011;11312;51.464;6.968;2024-03-02T09:21:51;1.52;;;1.20;;
22287;SDS011;11312;51.464;6.968;2024-03-02T09:24:16;1.80;;;1.30;;
22287;SDS011;11312;51.464;6.968;2024-03-02T09:26:42;2.13;;;1.42;;
22287;SDS011;11312;51.464;6.968;2024-03-02T09:29:08;1.48;;;1.20;;
22287;SDS011;11312;51.464;6.968;2024-03-02T09:31:38;1.67;;;1.20;;
22287;SDS011;11312;51.464;6.968;2024-03-02T09:34:08;3.75;;;1.95;;
22287;SDS011;11312;51.464;6.968;2024-03-02T09:36:35;1.55;;;1.20;;
22287;SDS011;11312;51.464;6.968;2024-03-02T09:39:01;1.50;;;1.20;;
22287;SDS011;11312;51.464;6.968;2024-03-02T09:41:28;1.85;;;1.30;;
22287;SDS011;11312;51.464;6.968;2024-03-02T09:43:54;1.30;;;1.10;;
22287;SDS011;11312;51.464;6.968;2024-03-02T09:46:20;1.83;;;1.15;;
22287;SDS011;11312;51.464;6.968;2024-03-02T09:48:46;2.53;;;1.45;;
22287;SDS011;11312;51.464;6.968;2024-03-02T09:51:12;1.30;;;1.10;;
22287;SDS011;11312;51.464;6.968;2024-03-02T09:53:39;1.30;;;1.10;;
22287;SDS011;11312;51.464;6.968;2024-03-02T09:56:05;1.98;;;1.30;;
22287;SDS011;11312;51.464;6.968;2024-03-02T09:58:30;1.20;;;1.10;;
22287;SDS011;11312;51.464;6.968;2024-03-02T10:00:56;1.65;;;1.20;;
22287;SDS011;11312;51.464;6.968;2024-03-02T10:03:25;1.27;;;1.00;;
22287;SDS011;11312;51.464;6.968;2024-03-02T10:05:54;2.45;;;1.20;;
22287;SDS011;11312;51.464;6.968;2024-03-02T10:08:19;1.83;;;1.20;;
22287;SDS011;11312;51.464;6.968;2024-03-02T10:10:45;1.42;;;1.20;;
22287;SDS011;11312;51.464;6.968;2024-03-02T10:13:11;1.20;;;1.10;;
22287;SDS011;11312;51.464;6.968;2024-03-02T10:15:39;1.92;;;1.30;;
22287;SDS011;11312;51.464;6.968;2024-03-02T10:18:12;1.20;;;1.10;;
22287;SDS011;11312;51.464;6.968;2024-03-02T10:20:39;2.75;;;1.42;;
22287;SDS011;11312;51.464;6.968;2024-03-02T10:25:38;1.00;;;1.00;;
22287;SDS011;11312;51.464;6.968;2024-03-02T10:28:04;1.15;;;1.02;;
22287;SDS011;11312;51.464;6.968;2024-03-02T10:30:31;1.60;;;1.20;;
22287;SDS011;11312;51.464;6.968;2024-03-02T10:32:58;1.58;;;1.17;;
22287;SDS011;11312;51.464;6.968;2024-03-02T10:35:23;1.83;;;1.25;;
22287;SDS011;11312;51.464;6.968;2024-03-02T10:37:51;1.73;;;1.20;;
22287;SDS011;11312;51.464;6.968;2024-03-02T10:40:18;3.42;;;1.63;;
22287;SDS011;11312;51.464;6.968;2024-03-02T10:42:46;0.93;;;0.93;;
22287;SDS011;11312;51.464;6.968;2024-03-02T10:45:13;0.90;;;0.90;;
22287;SDS011;11312;51.464;6.968;2024-03-02T10:47:42;1.35;;;1.25;;
22287;SDS011;11312;51.464;6.968;2024-03-02T10:50:09;1.13;;;1.02;;
22287;SDS011;11312;51.464;6.968;2024-03-02T10:52:35;1.05;;;1.00;;
22287;SDS011;11312;51.464;6.968;2024-03-02T10:55:01;1.13;;;1.00;;
22287;SDS011;11312;51.464;6.968;2024-03-02T10:57:52;1.00;;;0.98;;
22287;SDS011;11312;51.464;6.968;2024-03-02T11:00:19;0.90;;;0.85;;
22287;SDS011;11312;51.464;6.968;2024-03-02T11:02:50;0.50;;;0.50;;
22287;SDS011;11312;51.464;6.968;2024-03-02T11:05:19;0.57;;;0.57;;
22287;SDS011;11312;51.464;6.968;2024-03-02T11:07:57;0.60;;;0.60;;
22287;SDS011;11312;51.464;6.968;2024-03-02T11:10:29;0.60;;;0.60;;
22287;SDS011;11312;51.464;6.968;2024-03-02T11:13:02;0.85;;;0.70;;
22287;SDS011;11312;51.464;6.968;2024-03-02T11:15:34;0.52;;;0.52;;
22287;SDS011;11312;51.464;6.968;2024-03-02T11:18:04;0.60;;;0.60;;
22287;SDS011;11312;51.464;6.968;2024-03-02T11:20:34;0.80;;;0.75;;
22287;SDS011;11312;51.464;6.968;2024-03-02T11:23:07;0.63;;;0.60;;
22287;SDS011;11312;51.464;6.968;2024-03-02T11:25:33;0.65;;;0.65;;
22287;SDS011;11312;51.464;6.968;2024-03-02T11:28:00;1.30;;;0.93;;
22287;SDS011;11312;51.464;6.968;2024-03-02T11:32:58;0.57;;;0.57;;
22287;SDS011;11312;51.464;6.968;2024-03-02T11:35:37;0.40;;;0.40;;
22287;SDS011;11312;51.464;6.968;2024-03-02T11:38:07;0.50;;;0.50;;
22287;SDS011;11312;51.464;6.968;2024-03-02T11:40:34;0.68;;;0.52;;
22287;SDS011;11312;51.464;6.968;2024-03-02T11:43:00;0.40;;;0.38;;
22287;SDS011;11312;51.464;6.968;2024-03-02T11:45:27;0.70;;;0.50;;
22287;SDS011;11312;51.464;6.968;2024-03-02T11:47:59;2.28;;;1.05;;
22287;SDS011;11312;51.464;6.968;2024-03-02T11:55:21;0.98;;;0.55;;
22287;SDS011;11312;51.464;6.968;2024-03-02T11:57:48;0.70;;;0.50;;
22287;SDS011;11312;51.464;6.968;2024-03-02T12:00:18;0.40;;;0.40;;
22287;SDS011;11312;51.464;6.968;2024-03-02T12:02:44;0.57;;;0.50;;
22287;SDS011;11312;51.464;6.968;2024-03-02T12:05:14;1.17;;;0.68;;
22287;SDS011;11312;51.464;6.968;2024-03-02T12:07:42;1.35;;;0.65;;
22287;SDS011;11312;51.464;6.968;2024-03-02T12:10:08;2.47;;;0.60;;
22287;SDS011;11312;51.464;6.968;2024-03-02T12:12:34;0.50;;;0.50;;
22287;SDS011;11312;51.464;6.968;2024-03-02T12:15:00;0.50;;;0.50;;
22287;SDS011;11312;51.464;6.968;2024-03-02T12:17:26;0.43;;;0.43;;
22287;SDS011;11312;51.464;6.968;2024-03-02T12:19:51;0.93;;;0.70;;
22287;SDS011;11312;51.464;6.968;2024-03-02T12:22:18;0.32;;;0.32;;
22287;SDS011;11312;51.464;6.968;2024-03-02T12:24:44;1.08;;;0.73;;
22287;SDS011;11312;51.464;6.968;2024-03-02T12:27:10;0.52;;;0.52;;
22287;SDS011;11312;51.464;6.968;2024-03-02T12:29:37;0.60;;;0.60;;
22287;SDS011;11312;51.464;6.968;2024-03-02T12:32:04;0.57;;;0.57;;
22287;SDS011;11312;51.464;6.968;2024-03-02T12:34:31;3.22;;;1.23;;
22287;SDS011;11312;51.464;6.968;2024-03-02T12:36:56;0.50;;;0.50;;
22287;SDS011;11312;51.464;6.968;2024-03-02T12:39:22;0.52;;;0.52;;
22287;SDS011;11312;51.464;6.968;2024-03-02T12:46:41;0.70;;;0.70;;
22287;SDS011;11312;51.464;6.968;2024-03-02T12:49:08;0.80;;;0.80;;
22287;SDS011;11312;51.464;6.968;2024-03-02T12:51:36;1.23;;;1.00;;
22287;SDS011;11312;51.464;6.968;2024-03-02T12:54:02;0.90;;;0.90;;
22287;SDS011;11312;51.464;6.968;2024-03-02T12:56:30;1.08;;;1.00;;
22287;SDS011;11312;51.464;6.968;2024-03-02T12:58:56;1.50;;;1.05;;
22287;SDS011;11312;51.464;6.968;2024-03-02T13:01:22;0.90;;;0.90;;
22287;SDS011;11312;51.464;6.968;2024-03-02T13:03:52;1.58;;;1.25;;
22287;SDS011;11312;51.464;6.968;2024-03-02T13:06:18;1.50;;;1.10;;
22287;SDS011;11312;51.464;6.968;2024-03-02T13:08:45;1.35;;;1.10;;
22287;SDS011;11312;51.464;6.968;2024-03-02T13:11:11;1.13;;;1.02;;
22287;SDS011;11312;51.464;6.968;2024-03-02T13:13:38;1.20;;;1.10;;
22287;SDS011;11312;51.464;6.968;2024-03-02T13:16:08;1.00;;;1.00;;
22287;SDS011;11312;51.464;6.968;2024-03-02T13:18:35;1.27;;;1.10;;
22287;SDS011;11312;51.464;6.968;2024-03-02T13:21:01;1.00;;;1.00;;
22287;SDS011;11312;51.464;6.968;2024-03-02T13:23:27;1.20;;;1.10;;
22287;SDS011;11312;51.464;6.968;2024-03-02T13:25:55;1.20;;;1.10;;
22287;SDS011;11312;51.464;6.968;2024-03-02T13:28:21;1.20;;;1.10;;
22287;SDS011;11312;51.464;6.968;2024-03-02T13:30:47;1.42;;;1.10;;
22287;SDS011;11312;51.464;6.968;2024-03-02T13:33:13;1.30;;;1.10;;
22287;SDS011;11312;51.464;6.968;2024-03-02T13:35:38;1.80;;;1.30;;
22287;SDS011;11312;51.464;6.968;2024-03-02T13:38:04;1.23;;;1.10;;
22287;SDS011;11312;51.464;6.968;2024-03-02T13:40:29;1.77;;;1.30;;
22287;SDS011;11312;51.464;6.968;2024-03-02T13:43:00;1.20;;;1.10;;
22287;SDS011;11312;51.464;6.968;2024-03-02T13:45:26;1.10;;;1.00;;
22287;SDS011;11312;51.464;6.968;2024-03-02T13:47:52;2.88;;;1.50;;
22287;SDS011;11312;51.464;6.968;2024-03-02T13:50:18;1.30;;;1.13;;
22287;SDS011;11312;51.464;6.968;2024-03-02T13:52:45;1.83;;;1.20;;
22287;SDS011;11312;51.464;6.968;2024-03-02T13:55:10;1.10;;;1.00;;
22287;SDS011;11312;51.464;6.968;2024-03-02T13:57:36;1.25;;;1.10;;
22287;SDS011;11312;51.464;6.968;2024-03-02T14:00:02;2.42;;;1.58;;
22287;SDS011;11312;51.464;6.968;2024-03-02T14:02:28;1.20;;;1.10;;
22287;SDS011;11312;51.464;6.968;2024-03-02T14:04:55;1.40;;;1.10;;
22287;SDS011;11312;51.464;6.968;2024-03-02T14:07:21;2.63;;;1.75;;
22287;SDS011;11312;51.464;6.968;2024-03-02T14:09:46;1.50;;;1.20;;
22287;SDS011;11312;51.464;6.968;2024-03-02T14:12:12;1.90;;;1.20;;
22287;SDS011;11312;51.464;6.968;2024-03-02T14:14:38;1.13;;;1.02;;
22287;SDS011;11312;51.464;6.968;2024-03-02T14:17:04;2.97;;;1.48;;
22287;SDS011;11312;51.464;6.968;2024-03-02T14:19:31;1.20;;;1.10;;
22287;SDS011;11312;51.464;6.968;2024-03-02T14:21:57;1.42;;;1.10;;
22287;SDS011;11312;51.464;6.968;2024-03-02T14:24:23;1.30;;;1.10;;
22287;SDS011;11312;51.464;6.968;2024-03-02T14:26:51;1.65;;;1.13;;
22287;SDS011;11312;51.464;6.968;2024-03-02T14:29:17;1.73;;;1.15;;
22287;SDS011;11312;51.464;6.968;2024-03-02T14:31:43;1.10;;;1.00;;
22287;SDS011;11312;51.464;6.968;2024-03-02T14:34:13;1.52;;;1.15;;
22287;SDS011;11312;51.464;6.968;2024-03-02T14:36:39;1.10;;;1.00;;
22287;SDS011;11312;51.464;6.968;2024-03-02T14:39:04;2.78;;;1.52;;
22287;SDS011;11312;51.464;6.968;2024-03-02T14:41:34;1.10;;;1.00;;
22287;SDS011;11312;51.464;6.968;2024-03-02T14:43:59;1.38;;;1.20;;
22287;SDS011;11312;51.464;6.968;2024-03-02T14:46:25;0.98;;;0.98;;
22287;SDS011;11312;51.464;6.968;2024-03-02T14:48:51;1.58;;;1.15;;
22287;SDS011;11312;51.464;6.968;2024-03-02T14:51:16;1.05;;;0.98;;
22287;SDS011;11312;51.464;6.968;2024-03-02T14:53:42;1.08;;;0.98;;
22287;SDS011;11312;51.464;6.968;2024-03-02T14:56:07;1.27;;;1.05;;
22287;SDS011;11312;51.464;6.968;2024-03-02T14:58:33;1.50;;;1.40;;
22287;SDS011;11312;51.464;6.968;2024-03-02T15:01:00;1.23;;;1.05;;
22287;SDS011;11312;51.464;6.968;2024-03-02T15:03:26;0.90;;;0.90;;
22287;SDS011;11312;51.464;6.968;2024-03-02T15:05:52;1.23;;;1.10;;
22287;SDS011;11312;51.464;6.968;2024-03-02T15:08:18;1.02;;;1.00;;